createdAt,value
2023-02-06T00:01:27.624Z,103767.00
2023-02-06T00:03:33.043Z,103761.75
2023-02-06T00:05:36.902Z,103762.56
2023-02-06T00:07:40.757Z,103762.56
2023-02-06T00:09:44.456Z,103766.97
2023-02-06T00:11:47.937Z,103766.09
2023-02-06T00:13:51.861Z,103770.50
2023-02-06T00:15:55.493Z,103769.69
2023-02-06T00:17:59.164Z,103766.25
2023-02-06T00:20:04.137Z,103769.75
2023-02-06T00:22:07.954Z,103780.16
2023-02-06T00:24:11.579Z,103776.69
2023-02-06T00:26:15.169Z,103774.09
2023-02-06T00:28:19.121Z,103772.34
2023-02-06T00:30:23.094Z,103768.94
2023-02-06T00:32:27.045Z,103773.38
2023-02-06T00:34:30.983Z,103768.25
2023-02-06T00:36:37.730Z,103766.53
2023-02-06T00:38:41.602Z,103757.84
2023-02-06T00:40:45.303Z,103759.69
2023-02-06T00:42:49.104Z,103761.50
2023-02-06T00:44:53.116Z,103751.16
2023-02-06T00:46:58.941Z,103746.88
2023-02-06T00:49:03.350Z,103740.00
2023-02-06T00:51:07.651Z,103737.44
2023-02-06T00:53:15.540Z,103740.94
2023-02-06T00:55:21.401Z,103731.38
2023-02-06T00:57:25.676Z,103734.06
2023-02-06T00:59:29.355Z,103730.59
2023-02-06T01:01:34.980Z,103730.63
2023-02-06T01:03:38.761Z,103726.38
2023-02-06T01:05:42.559Z,103722.03
2023-02-06T01:07:48.039Z,103715.97
2023-02-06T01:09:53.166Z,103719.50
2023-02-06T01:11:57.042Z,103720.44
2023-02-06T01:14:03.381Z,103716.13
2023-02-06T01:16:09.969Z,103718.78
2023-02-06T01:18:13.962Z,103711.84
2023-02-06T01:20:17.676Z,103711.91
2023-02-06T01:22:21.819Z,103711.06
2023-02-06T01:24:25.721Z,103714.59
2023-02-06T01:26:31.141Z,103705.06
2023-02-06T01:28:37.268Z,103705.09
2023-02-06T01:30:41.108Z,103700.78
2023-02-06T01:32:45.152Z,103700.78
2023-02-06T01:34:52.229Z,103695.59
2023-02-06T01:36:55.932Z,103694.81
2023-02-06T01:38:59.574Z,103696.63
2023-02-06T01:41:03.738Z,103690.53
2023-02-06T01:43:18.070Z,103693.16
2023-02-06T01:45:37.417Z,103691.41
2023-02-06T01:47:41.590Z,103692.31
2023-02-06T01:49:49.395Z,103689.75
2023-02-06T01:51:55.048Z,103690.63
2023-02-06T01:54:02.369Z,103688.94
2023-02-06T01:56:08.222Z,103688.09
2023-02-06T01:58:18.810Z,103685.50
2023-02-06T02:00:22.848Z,103682.03
2023-02-06T02:02:29.254Z,103689.06
2023-02-06T02:04:34.579Z,103680.34
2023-02-06T02:06:39.332Z,103688.19
2023-02-06T02:08:45.765Z,103689.94
2023-02-06T02:10:49.655Z,103684.72
2023-02-06T02:12:53.379Z,103691.75
2023-02-06T02:14:59.622Z,103689.13
2023-02-06T02:17:15.390Z,103686.56
2023-02-06T02:19:49.248Z,103688.38
2023-02-06T02:22:40.232Z,103677.97
2023-02-06T02:25:06.675Z,103678.00
2023-02-06T02:27:36.097Z,103678.03
2023-02-06T02:30:31.934Z,103672.91
2023-02-06T02:33:05.569Z,103672.09
2023-02-06T02:35:28.668Z,103679.13
2023-02-06T02:37:44.951Z,103673.94
2023-02-06T02:39:57.555Z,103664.31
2023-02-06T02:42:07.764Z,103655.44
2023-02-06T02:44:17.033Z,103661.50
2023-02-06T02:46:26.134Z,103660.66
2023-02-06T02:48:33.728Z,103655.38
2023-02-06T02:50:41.483Z,103644.81
2023-02-06T02:52:45.027Z,103639.53
2023-02-06T02:54:48.316Z,103630.81
2023-02-06T02:56:52.441Z,103632.53
2023-02-06T02:59:00.543Z,103623.84
2023-02-06T03:01:07.397Z,103622.09
2023-02-06T03:03:15.386Z,103631.75
2023-02-06T03:05:21.988Z,103630.91
2023-02-06T03:07:34.088Z,103634.34
2023-02-06T03:09:50.464Z,103630.84
2023-02-06T03:12:06.390Z,103626.44
2023-02-06T03:14:15.739Z,103630.72
2023-02-06T03:16:25.190Z,103620.13
2023-02-06T03:18:36.054Z,103619.22
2023-02-06T03:20:44.630Z,103613.91
2023-02-06T03:22:51.883Z,103620.78
2023-02-06T03:24:59.340Z,103619.91
2023-02-06T03:27:06.424Z,103614.63
2023-02-06T03:29:13.733Z,103609.28
2023-02-06T03:31:22.420Z,103607.50
2023-02-06T03:33:32.168Z,103607.44
2023-02-06T03:35:38.829Z,103606.53
2023-02-06T03:37:42.722Z,103595.13
2023-02-06T03:39:47.662Z,103596.69
2023-02-06T03:41:52.927Z,103598.38
2023-02-06T03:43:58.471Z,103596.44
2023-02-06T03:46:05.478Z,103593.63
2023-02-06T03:48:13.475Z,103594.47
2023-02-06T03:50:18.817Z,103580.44
2023-02-06T03:52:24.814Z,103576.75
2023-02-06T03:54:30.691Z,103583.75
2023-02-06T03:56:40.131Z,103581.19
2023-02-06T03:58:43.747Z,103579.53
2023-02-06T04:00:48.342Z,103585.66
2023-02-06T04:02:53.935Z,103577.78
2023-02-06T04:04:57.464Z,103582.00
2023-02-06T04:07:04.417Z,103578.38
2023-02-06T04:09:08.100Z,103579.09
2023-02-06T04:11:11.576Z,103570.22
2023-02-06T04:13:16.721Z,103562.19
2023-02-06T04:15:20.334Z,103568.31
2023-02-06T04:17:40.597Z,103567.53
2023-02-06T04:19:47.573Z,103571.09
2023-02-06T04:21:51.321Z,103577.28
2023-02-06T04:23:54.712Z,103563.28
2023-02-06T04:25:58.160Z,103557.06
2023-02-06T04:28:01.898Z,103557.84
2023-02-06T04:30:08.429Z,103547.38
2023-02-06T04:32:12.318Z,103549.97
2023-02-06T04:34:16.122Z,103544.78
2023-02-06T04:36:19.946Z,103544.81
2023-02-06T04:38:23.473Z,103539.59
2023-02-06T04:40:27.218Z,103543.00
2023-02-06T04:42:30.725Z,103539.53
2023-02-06T04:44:35.265Z,103536.97
2023-02-06T04:46:40.505Z,103535.22
2023-02-06T04:48:44.561Z,103530.84
2023-02-06T04:50:48.181Z,103521.25
2023-02-06T04:52:51.698Z,103516.88
2023-02-06T04:54:55.442Z,103511.63
2023-02-06T04:56:59.091Z,103515.09
2023-02-06T04:59:02.818Z,103518.59
2023-02-06T05:01:06.789Z,103514.22
2023-02-06T05:03:11.920Z,103522.91
2023-02-06T05:05:15.841Z,103521.19
2023-02-06T05:07:19.609Z,103525.47
2023-02-06T05:09:23.220Z,103514.13
2023-02-06T05:11:26.779Z,103516.63
2023-02-06T05:13:30.443Z,103505.78
2023-02-06T05:15:34.387Z,103503.97
2023-02-06T05:17:38.120Z,103508.28
2023-02-06T05:19:43.211Z,103509.16
2023-02-06T05:21:46.854Z,103501.38
2023-02-06T05:23:50.615Z,103502.34
2023-02-06T05:25:54.279Z,103499.75
2023-02-06T05:27:58.664Z,103498.91
2023-02-06T05:30:02.290Z,103503.28
2023-02-06T05:32:06.164Z,103491.03
2023-02-06T05:34:11.326Z,103493.63
2023-02-06T05:36:16.376Z,103482.28
2023-02-06T05:38:20.389Z,103483.16
2023-02-06T05:40:24.065Z,103484.03
2023-02-06T05:42:27.677Z,103486.50
2023-02-06T05:44:31.243Z,103485.56
2023-02-06T05:46:34.989Z,103489.03
2023-02-06T05:48:38.716Z,103487.31
2023-02-06T05:50:43.319Z,103482.84
2023-02-06T05:52:52.964Z,103495.53
2023-02-06T05:54:56.663Z,103491.91
2023-02-06T05:57:00.227Z,103488.28
2023-02-06T05:59:03.714Z,103494.34
2023-02-06T06:01:07.302Z,103498.66
2023-02-06T06:03:10.976Z,103491.72
2023-02-06T06:05:14.535Z,103486.59
2023-02-06T06:07:18.256Z,103491.94
2023-02-06T06:09:23.598Z,103495.44
2023-02-06T06:11:27.348Z,103498.06
2023-02-06T06:13:31.457Z,103501.59
2023-02-06T06:15:35.158Z,103499.06
2023-02-06T06:17:38.873Z,103498.25
2023-02-06T06:19:42.497Z,103502.66
2023-02-06T06:21:46.172Z,103494.00
2023-02-06T06:23:50.042Z,103501.91
2023-02-06T06:25:55.136Z,103491.59
2023-02-06T06:27:58.787Z,103496.91
2023-02-06T06:30:02.836Z,103497.81
2023-02-06T06:32:07.083Z,103493.47
2023-02-06T06:34:10.635Z,103499.66
2023-02-06T06:36:15.175Z,103495.28
2023-02-06T06:38:18.789Z,103489.25
2023-02-06T06:40:22.452Z,103496.25
2023-02-06T06:42:27.342Z,103495.44
2023-02-06T06:44:30.987Z,103493.72
2023-02-06T06:46:34.702Z,103493.75
2023-02-06T06:48:38.630Z,103493.84
2023-02-06T06:50:42.071Z,103493.75
2023-02-06T06:52:45.651Z,103504.31
2023-02-06T06:54:50.876Z,103494.75
2023-02-06T06:56:55.531Z,103489.66
2023-02-06T06:59:00.452Z,103482.75
2023-02-06T07:01:04.115Z,103492.34
2023-02-06T07:03:08.692Z,103488.88
2023-02-06T07:05:12.729Z,103487.16
2023-02-06T07:07:17.519Z,103486.34
2023-02-06T07:09:21.974Z,103488.09
2023-02-06T07:11:26.664Z,103485.44
2023-02-06T07:13:32.649Z,103479.31
2023-02-06T07:15:38.116Z,103485.44
2023-02-06T07:17:41.737Z,103469.84
2023-02-06T07:19:48.361Z,103470.75
2023-02-06T07:21:52.023Z,103476.88
2023-02-06T07:23:55.718Z,103469.06
2023-02-06T07:26:02.600Z,103474.38
2023-02-06T07:28:06.471Z,103478.81
2023-02-06T07:30:11.633Z,103482.38
2023-02-06T07:32:16.770Z,103478.06
2023-02-06T07:34:20.439Z,103475.59
2023-02-06T07:36:24.374Z,103477.44
2023-02-06T07:38:29.096Z,103473.22
2023-02-06T07:40:44.742Z,103474.22
2023-02-06T07:42:49.611Z,103464.72
2023-02-06T07:45:01.327Z,103459.59
2023-02-06T07:47:06.110Z,103459.66
2023-02-06T07:49:15.805Z,103457.06
2023-02-06T07:51:20.892Z,103469.31
2023-02-06T07:53:25.392Z,103456.31
2023-02-06T07:55:29.139Z,103469.41
2023-02-06T07:57:33.182Z,103467.69
2023-02-06T07:59:37.271Z,103469.50
2023-02-06T08:01:41.120Z,103471.25
2023-02-06T08:03:44.796Z,103473.88
2023-02-06T08:05:49.902Z,103480.06
2023-02-06T08:07:54.016Z,103466.13
2023-02-06T08:09:57.636Z,103462.69
2023-02-06T08:12:01.601Z,103476.66
2023-02-06T08:14:05.192Z,103470.59
2023-02-06T08:16:12.162Z,103474.16
2023-02-06T08:18:15.859Z,103474.94
2023-02-06T08:20:25.454Z,103472.22
2023-02-06T08:22:32.660Z,103472.22
2023-02-06T08:24:37.156Z,103471.41
2023-02-06T08:26:41.563Z,103470.72
2023-02-06T08:28:46.509Z,103468.16
2023-02-06T08:30:50.766Z,103468.28
2023-02-06T08:32:54.485Z,103477.09
2023-02-06T08:34:58.216Z,103471.06
2023-02-06T08:37:01.895Z,103475.47
2023-02-06T08:39:07.678Z,103473.75
2023-02-06T08:41:19.272Z,103467.72
2023-02-06T08:43:22.964Z,103469.47
2023-02-06T08:45:27.559Z,103473.88
2023-02-06T08:47:31.583Z,103469.50
2023-02-06T08:49:35.489Z,103462.56
2023-02-06T08:51:39.750Z,103463.41
2023-02-06T08:53:43.326Z,103457.34
2023-02-06T08:55:48.491Z,103460.91
2023-02-06T08:57:52.230Z,103460.16
2023-02-06T08:59:56.242Z,103460.19
2023-02-06T09:02:00.123Z,103456.78
2023-02-06T09:04:06.626Z,103455.09
2023-02-06T09:06:11.074Z,103456.00
2023-02-06T09:08:15.096Z,103455.22
2023-02-06T09:10:27.374Z,103453.50
2023-02-06T09:12:33.179Z,103453.53
2023-02-06T09:14:36.746Z,103463.19
2023-02-06T09:16:40.350Z,103459.78
2023-02-06T09:18:44.053Z,103450.22
2023-02-06T09:20:50.049Z,103453.75
2023-02-06T09:22:53.928Z,103459.06
2023-02-06T09:24:57.697Z,103452.09
2023-02-06T09:27:01.694Z,103453.88
2023-02-06T09:29:08.653Z,103451.28
2023-02-06T09:31:15.279Z,103453.94
2023-02-06T09:33:19.785Z,103445.25
2023-02-06T09:35:23.577Z,103442.66
2023-02-06T09:37:27.299Z,103448.81
2023-02-06T09:39:31.717Z,103460.19
2023-02-06T09:44:06.635Z,103454.97
2023-02-06T09:46:17.198Z,103452.34
2023-02-06T09:48:23.729Z,103456.72
2023-02-06T09:50:31.917Z,103455.00
2023-02-06T09:52:56.928Z,103444.47
2023-02-06T09:55:10.345Z,103451.50
2023-02-06T09:57:20.752Z,103450.63
2023-02-06T09:59:31.619Z,103447.13
2023-02-06T10:01:44.056Z,103446.25
2023-02-06T10:04:12.967Z,103437.50
2023-02-06T10:06:23.445Z,103440.13
2023-02-06T10:08:34.250Z,103440.09
2023-02-06T10:10:43.532Z,103433.09
2023-02-06T10:12:52.733Z,103435.72
2023-02-06T10:15:02.272Z,103431.34
2023-02-06T10:17:18.041Z,103434.84
2023-02-06T10:19:27.065Z,103425.19
2023-02-06T10:21:37.088Z,103431.34
2023-02-06T10:23:47.633Z,103433.97
2023-02-06T10:26:05.293Z,103426.94
2023-02-06T10:28:26.731Z,103430.47
2023-02-06T10:30:41.557Z,103433.06
2023-02-06T10:32:53.435Z,103420.81
2023-02-06T10:35:28.622Z,103415.53
2023-02-06T10:37:56.155Z,103409.38
2023-02-06T10:40:21.006Z,103413.75
2023-02-06T10:42:33.658Z,103411.97
2023-02-06T10:44:51.052Z,103410.22
2023-02-06T10:46:56.565Z,103406.72
2023-02-06T10:49:04.198Z,103403.22
2023-02-06T10:51:17.676Z,103408.44
2023-02-06T10:53:27.000Z,103406.69
2023-02-06T10:55:37.290Z,103404.03
2023-02-06T10:57:43.105Z,103403.16
2023-02-06T10:59:48.957Z,103392.59
2023-02-06T11:02:00.626Z,103396.97
2023-02-06T11:04:14.056Z,103382.03
2023-02-06T11:06:21.785Z,103383.75
2023-02-06T11:08:31.298Z,103387.28
2023-02-06T11:10:35.850Z,103389.88
2023-02-06T11:12:43.655Z,103385.50
2023-02-06T11:14:47.801Z,103379.31
2023-02-06T11:16:52.474Z,103378.41
2023-02-06T11:18:59.679Z,103381.03
2023-02-06T11:21:05.496Z,103374.81
2023-02-06T11:23:18.109Z,103378.31
2023-02-06T11:25:27.021Z,103383.56
2023-02-06T11:27:32.316Z,103374.72
2023-02-06T11:29:39.295Z,103376.44
2023-02-06T11:31:45.775Z,103382.56
2023-02-06T11:33:53.840Z,103374.63
2023-02-06T11:36:00.679Z,103365.84
2023-02-06T11:38:16.274Z,103374.59
2023-02-06T11:40:27.388Z,103371.06
2023-02-06T11:42:30.990Z,103367.50
2023-02-06T11:44:40.019Z,103372.75
2023-02-06T11:46:43.614Z,103366.56
2023-02-06T11:48:49.004Z,103358.63
2023-02-06T11:50:56.277Z,103360.34
2023-02-06T11:53:08.900Z,103362.03
2023-02-06T11:55:24.012Z,103350.59
2023-02-06T11:57:28.099Z,103346.13
2023-02-06T11:59:34.919Z,103339.03
2023-02-06T12:01:46.086Z,103335.44
2023-02-06T12:03:57.842Z,103331.88
2023-02-06T12:06:08.753Z,103329.19
2023-02-06T12:08:18.674Z,103326.50
2023-02-06T12:10:27.433Z,103324.78
2023-02-06T12:12:35.930Z,103322.16
2023-02-06T12:14:41.953Z,103320.41
2023-02-06T12:16:48.081Z,103320.47
2023-02-06T12:18:57.594Z,103317.84
2023-02-06T12:21:08.015Z,103315.22
2023-02-06T12:23:21.158Z,103323.16
2023-02-06T12:25:31.983Z,103314.41
2023-02-06T12:27:39.730Z,103308.25
2023-02-06T12:29:47.305Z,103309.16
2023-02-06T12:32:01.056Z,103307.47
2023-02-06T12:34:14.317Z,103302.19
2023-02-06T12:36:22.135Z,103297.84
2023-02-06T12:38:36.898Z,103299.63
2023-02-06T12:40:47.010Z,103297.00
2023-02-06T12:42:55.387Z,103300.47
2023-02-06T12:45:04.272Z,103303.13
2023-02-06T12:47:15.852Z,103292.50
2023-02-06T12:49:24.875Z,103295.03
2023-02-06T12:51:33.441Z,103291.38
2023-02-06T12:53:41.485Z,103290.38
2023-02-06T12:55:54.300Z,103282.34
2023-02-06T12:57:59.298Z,103278.72
2023-02-06T13:00:20.117Z,103278.66
2023-02-06T13:02:37.004Z,103269.78
2023-02-06T13:04:41.453Z,103270.59
2023-02-06T13:06:51.913Z,103272.38
2023-02-06T13:08:58.393Z,103265.31
2023-02-06T13:11:08.114Z,103257.41
2023-02-06T13:13:28.727Z,103254.78
2023-02-06T13:15:39.258Z,103251.25
2023-02-06T13:17:45.279Z,103248.63
2023-02-06T13:20:01.134Z,103238.91
2023-02-06T13:22:24.535Z,103239.78
2023-02-06T13:24:28.381Z,103233.63
2023-02-06T13:27:05.680Z,103235.41
2023-02-06T13:29:25.476Z,103231.88
2023-02-06T13:31:32.480Z,103230.16
2023-02-06T13:33:43.276Z,103225.72
2023-02-06T13:36:08.353Z,103225.72
2023-02-06T13:38:28.600Z,103219.56
2023-02-06T13:40:35.496Z,103221.34
2023-02-06T13:42:45.299Z,103223.06
2023-02-06T13:44:48.936Z,103212.44
2023-02-06T13:47:25.509Z,103215.03
2023-02-06T13:50:17.162Z,103218.56
2023-02-06T13:52:29.130Z,103210.63
2023-02-06T13:54:57.233Z,103207.06
2023-02-06T13:57:29.656Z,103213.22
2023-02-06T13:59:37.890Z,103203.50
2023-02-06T14:01:41.915Z,103212.31
2023-02-06T14:03:48.505Z,103207.94
2023-02-06T14:06:00.460Z,103208.91
2023-02-06T14:08:12.431Z,103201.94
2023-02-06T14:10:31.489Z,103202.03
2023-02-06T14:12:49.969Z,103206.47
2023-02-06T14:15:08.616Z,103208.31
2023-02-06T14:17:28.555Z,103201.34
2023-02-06T14:19:48.420Z,103194.34
2023-02-06T14:22:04.725Z,103195.28
2023-02-06T14:24:23.406Z,103197.09
2023-02-06T14:26:36.698Z,103198.00
2023-02-06T14:28:52.235Z,103193.66
2023-02-06T14:31:02.895Z,103197.22
2023-02-06T14:33:35.253Z,103188.47
2023-02-06T14:35:51.051Z,103183.19
2023-02-06T14:38:16.401Z,103177.06
2023-02-06T14:40:24.252Z,103183.25
2023-02-06T14:42:32.821Z,103184.13
2023-02-06T14:44:36.830Z,103189.44
2023-02-06T14:46:43.472Z,103187.69
2023-02-06T14:48:50.218Z,103189.47
2023-02-06T14:50:57.176Z,103197.38
2023-02-06T14:53:06.423Z,103197.31
2023-02-06T14:55:31.071Z,103199.94
2023-02-06T14:57:35.244Z,103194.63
2023-02-06T14:59:39.497Z,103195.47
2023-02-06T15:01:47.072Z,103194.56
2023-02-06T15:03:54.951Z,103193.69
2023-02-06T15:06:04.424Z,103194.56
2023-02-06T15:08:08.926Z,103196.28
2023-02-06T15:10:16.440Z,103192.69
2023-02-06T15:12:24.107Z,103186.53
2023-02-06T15:14:29.495Z,103183.84
2023-02-06T15:16:48.340Z,103193.50
2023-02-06T15:18:52.079Z,103182.91
2023-02-06T15:20:57.692Z,103190.81
2023-02-06T15:23:17.648Z,103191.66
2023-02-06T15:25:36.184Z,103181.94
2023-02-06T15:27:40.876Z,103181.03
2023-02-06T15:29:49.612Z,103176.63
2023-02-06T15:32:03.175Z,103178.38
2023-02-06T15:34:06.913Z,103181.06
2023-02-06T15:36:23.893Z,103171.38
2023-02-06T15:38:30.433Z,103170.50
2023-02-06T15:40:35.875Z,103179.28
2023-02-06T15:42:40.003Z,103175.78
2023-02-06T15:44:44.060Z,103174.94
2023-02-06T15:46:49.348Z,103168.75
2023-02-06T15:48:57.573Z,103165.22
2023-02-06T15:51:03.568Z,103175.75
2023-02-06T15:53:19.904Z,103166.06
2023-02-06T15:55:26.721Z,103164.22
2023-02-06T15:57:33.584Z,103158.88
2023-02-06T15:59:41.772Z,103169.41
2023-02-06T16:01:46.181Z,103171.09
2023-02-06T16:03:53.459Z,103167.56
2023-02-06T16:05:59.021Z,103164.88
2023-02-06T16:08:04.043Z,103162.16
2023-02-06T16:10:20.129Z,103166.56
2023-02-06T16:12:24.994Z,103164.78
2023-02-06T16:14:35.600Z,103160.38
2023-02-06T16:16:39.266Z,103160.38
2023-02-06T16:18:43.162Z,103162.16
2023-02-06T16:20:47.234Z,103163.09
2023-02-06T16:22:57.293Z,103163.97
2023-02-06T16:25:23.402Z,103164.94
2023-02-06T16:27:29.123Z,103164.97
2023-02-06T16:29:34.056Z,103159.75
2023-02-06T16:31:40.078Z,103142.25
2023-02-06T16:33:45.644Z,103158.13
2023-02-06T16:35:50.510Z,103162.59
2023-02-06T16:37:56.199Z,103160.03
2023-02-06T16:39:59.861Z,103163.63
2023-02-06T16:42:03.457Z,103168.03
2023-02-06T16:44:14.665Z,103169.00
2023-02-06T16:46:18.104Z,103162.91
2023-02-06T16:48:21.690Z,103171.72
2023-02-06T16:50:25.294Z,103166.50
2023-02-06T16:52:32.006Z,103178.00
2023-02-06T16:54:37.386Z,103175.44
2023-02-06T16:56:41.143Z,103177.22
2023-02-06T16:58:45.293Z,103177.31
2023-02-06T17:00:49.228Z,103170.28
2023-02-06T17:02:54.064Z,103171.22
2023-02-06T17:04:57.688Z,103166.00
2023-02-06T17:07:01.331Z,103171.34
2023-02-06T17:09:09.286Z,103181.94
2023-02-06T17:11:14.251Z,103174.94
2023-02-06T17:13:19.478Z,103183.78
2023-02-06T17:15:23.080Z,103178.53
2023-02-06T17:17:26.643Z,103180.38
2023-02-06T17:19:30.292Z,103182.16
2023-02-06T17:21:33.982Z,103178.66
2023-02-06T17:23:37.542Z,103182.22
2023-02-06T17:25:42.707Z,103177.84
2023-02-06T17:27:48.096Z,103187.56
2023-02-06T17:29:53.856Z,103183.19
2023-02-06T17:31:57.486Z,103183.25
2023-02-06T17:34:01.247Z,103175.38
2023-02-06T17:36:07.899Z,103174.53
2023-02-06T17:38:11.871Z,103175.47
2023-02-06T17:40:20.608Z,103171.09
2023-02-06T17:42:25.869Z,103166.75
2023-02-06T17:44:30.951Z,103166.75
2023-02-06T17:46:34.440Z,103176.47
2023-02-06T17:48:42.787Z,103178.22
2023-02-06T17:50:46.450Z,103185.28
2023-02-06T17:52:49.958Z,103183.53
2023-02-06T17:54:53.671Z,103179.13
2023-02-06T17:56:57.198Z,103183.53
2023-02-06T17:59:00.779Z,103182.66
2023-02-06T18:01:06.270Z,103184.44
2023-02-06T18:03:09.948Z,103191.47
2023-02-06T18:05:13.468Z,103195.00
2023-02-06T18:07:17.250Z,103199.38
2023-02-06T18:09:21.204Z,103206.44
2023-02-06T18:11:25.500Z,103195.00
2023-02-06T18:13:29.213Z,103205.56
2023-02-06T18:15:33.306Z,103199.44
2023-02-06T18:17:38.357Z,103205.56
2023-02-06T18:19:44.292Z,103202.94
2023-02-06T18:21:48.012Z,103204.72
2023-02-06T18:23:52.830Z,103201.19
2023-02-06T18:25:56.544Z,103200.31
2023-02-06T18:28:00.367Z,103193.31
2023-02-06T18:30:05.136Z,103200.34
2023-02-06T18:32:10.467Z,103201.22
2023-02-06T18:34:15.390Z,103189.81
2023-02-06T18:36:19.042Z,103185.44
2023-02-06T18:38:22.582Z,103176.69
2023-02-06T18:40:26.113Z,103173.19
2023-02-06T18:42:47.371Z,103167.06
2023-02-06T18:44:50.853Z,103155.66
2023-02-06T18:46:54.684Z,103164.47
2023-02-06T18:49:03.672Z,103165.31
2023-02-06T18:51:10.048Z,103165.34
2023-02-06T18:53:13.697Z,103151.31
2023-02-06T18:55:18.340Z,103166.22
2023-02-06T18:57:22.247Z,103165.38
2023-02-06T18:59:25.927Z,103163.66
2023-02-06T19:01:29.761Z,103165.44
2023-02-06T19:03:33.240Z,103168.09
2023-02-06T19:05:37.716Z,103165.47
2023-02-06T19:07:43.077Z,103164.66
2023-02-06T19:09:47.097Z,103159.38
2023-02-06T19:11:50.638Z,103154.13
2023-02-06T19:13:54.179Z,103153.25
2023-02-06T19:16:06.674Z,103153.25
2023-02-06T19:18:10.897Z,103148.84
2023-02-06T19:20:14.593Z,103149.75
2023-02-06T19:22:18.375Z,103147.13
2023-02-06T19:24:24.151Z,103149.75
2023-02-06T19:26:28.658Z,103139.22
2023-02-06T19:28:34.257Z,103138.34
2023-02-06T19:30:38.121Z,103138.34
2023-02-06T19:32:41.954Z,103134.78
2023-02-06T19:34:45.646Z,103139.19
2023-02-06T19:36:49.207Z,103136.53
2023-02-06T19:38:56.476Z,103133.03
2023-02-06T19:41:08.128Z,103127.78
2023-02-06T19:43:11.673Z,103127.78
2023-02-06T19:45:15.832Z,103117.25
2023-02-06T19:47:19.298Z,103129.53
2023-02-06T19:49:22.859Z,103129.53
2023-02-06T19:51:29.198Z,103111.97
2023-02-06T19:53:34.489Z,103117.22
2023-02-06T19:55:38.466Z,103110.22
2023-02-06T19:57:43.528Z,103110.22
2023-02-06T19:59:47.196Z,103102.34
2023-02-06T20:01:53.162Z,103107.59
2023-02-06T20:03:57.572Z,103100.53
2023-02-06T20:06:02.732Z,103101.44
2023-02-06T20:08:06.577Z,103103.16
2023-02-06T20:10:11.218Z,103102.28
2023-02-06T20:12:15.818Z,103097.03
2023-02-06T20:14:22.202Z,103104.91
2023-02-06T20:16:28.146Z,103103.16
2023-02-06T20:18:32.339Z,103099.59
2023-02-06T20:20:37.364Z,103099.59
2023-02-06T20:22:41.638Z,103095.19
2023-02-06T20:24:46.053Z,103090.78
2023-02-06T20:26:52.591Z,103090.78
2023-02-06T20:28:57.776Z,103077.63
2023-02-06T20:31:09.875Z,103080.25
2023-02-06T20:33:13.630Z,103092.50
2023-02-06T20:35:17.467Z,103080.25
2023-02-06T20:37:21.650Z,103087.25
2023-02-06T20:39:26.603Z,103090.78
2023-02-06T20:41:33.416Z,103089.03
2023-02-06T20:43:37.439Z,103089.91
2023-02-06T20:45:41.238Z,103094.31
2023-02-06T20:47:46.566Z,103097.81
2023-02-06T20:49:50.373Z,103091.66
2023-02-06T20:51:58.378Z,103096.94
2023-02-06T20:54:02.178Z,103097.81
2023-02-06T20:56:08.200Z,103083.81
2023-02-06T20:58:12.329Z,103105.72
2023-02-06T21:00:18.330Z,103089.94
2023-02-06T21:02:23.333Z,103095.22
2023-02-06T21:04:32.627Z,103090.81
2023-02-06T21:06:37.820Z,103083.81
2023-02-06T21:08:41.412Z,103088.19
2023-02-06T21:10:45.604Z,103093.44
2023-02-06T21:12:49.684Z,103098.72
2023-02-06T21:14:53.351Z,103094.31
2023-02-06T21:16:57.657Z,103101.34
2023-02-06T21:19:02.773Z,103107.50
2023-02-06T21:21:10.160Z,103103.13
2023-02-06T21:23:14.526Z,103098.75
2023-02-06T21:25:18.951Z,103112.78
2023-02-06T21:27:22.584Z,103111.94
2023-02-06T21:29:26.393Z,103118.94
2023-02-06T21:31:37.033Z,103115.44
2023-02-06T21:33:41.735Z,103119.84
2023-02-06T21:35:51.330Z,103112.81
2023-02-06T21:37:56.547Z,103111.06
2023-02-06T21:40:00.477Z,103108.44
2023-02-06T21:42:04.234Z,103105.81
2023-02-06T21:44:08.088Z,103107.56
2023-02-06T21:46:13.285Z,103106.69
2023-02-06T21:48:16.977Z,103100.50
2023-02-06T21:50:21.082Z,103096.16
2023-02-06T21:52:24.643Z,103102.28
2023-02-06T21:54:30.298Z,103105.78
2023-02-06T21:56:35.470Z,103097.91
2023-02-06T21:58:39.604Z,103101.44
2023-02-06T22:00:44.550Z,103098.78
2023-02-06T22:02:48.047Z,103103.16
2023-02-06T22:04:52.024Z,103097.88
2023-02-06T22:06:55.678Z,103099.63
2023-02-06T22:09:05.331Z,103091.75
2023-02-06T22:11:15.459Z,103089.09
2023-02-06T22:13:19.217Z,103092.63
2023-02-06T22:15:23.132Z,103095.25
2023-02-06T22:17:27.346Z,103089.97
2023-02-06T22:19:31.409Z,103094.34
2023-02-06T22:21:36.351Z,103083.81
2023-02-06T22:23:41.495Z,103088.22
2023-02-06T22:25:47.828Z,103089.06
2023-02-06T22:27:53.162Z,103089.97
2023-02-06T22:29:56.808Z,103086.44
2023-02-06T22:32:04.577Z,103089.94
2023-02-06T22:34:11.958Z,103087.28
2023-02-06T22:36:18.062Z,103090.78
2023-02-06T22:38:21.465Z,103090.78
2023-02-06T22:40:25.898Z,103088.13
2023-02-06T22:42:29.664Z,103088.13
2023-02-06T22:44:34.670Z,103089.84
2023-02-06T22:46:39.587Z,103090.75
2023-02-06T22:48:43.046Z,103089.88
2023-02-06T22:50:46.822Z,103086.34
2023-02-06T22:53:07.770Z,103090.75
2023-02-06T22:55:11.390Z,103093.38
2023-02-06T22:57:15.855Z,103091.59
2023-02-06T22:59:21.842Z,103096.81
2023-02-06T23:01:30.726Z,103088.03
2023-02-06T23:03:34.393Z,103092.41
2023-02-06T23:05:38.023Z,103091.50
2023-02-06T23:07:41.702Z,103094.13
2023-02-06T23:09:45.269Z,103104.69
2023-02-06T23:11:49.457Z,103106.41
2023-02-06T23:13:54.696Z,103095.88
2023-02-06T23:15:59.616Z,103095.84
2023-02-06T23:18:04.689Z,103093.19
2023-02-06T23:20:09.478Z,103087.03
2023-02-06T23:22:13.565Z,103081.75
2023-02-06T23:24:17.571Z,103088.78
2023-02-06T23:26:21.829Z,103088.75
2023-02-06T23:28:37.001Z,103084.31
2023-02-06T23:30:40.963Z,103084.31
2023-02-06T23:32:44.570Z,103089.56
2023-02-06T23:34:50.774Z,103086.94
2023-02-06T23:36:54.722Z,103096.56
2023-02-06T23:38:58.437Z,103091.25
2023-02-06T23:41:09.665Z,103088.63
2023-02-06T23:43:13.134Z,103082.50
2023-02-06T23:45:16.757Z,103080.72
2023-02-06T23:47:20.312Z,103083.34
2023-02-06T23:49:26.049Z,103080.75
2023-02-06T23:51:35.284Z,103083.34
2023-02-06T23:53:39.975Z,103079.81
2023-02-06T23:55:44.742Z,103084.19
2023-02-06T23:57:49.099Z,103092.09
2023-02-06T23:59:52.957Z,103081.53
